الصفحة الرئيسية
METAR-TAF:

METAR-TAF

مطار :

Wagga Wagga, أستراليا

دائرة عرض: 35-09S, خط طول: 147-27E, ارتفاع: 221 متر

مراقبة الطقس الحالي

تاريخ ووقت الإصدار 54 دقيقة قبل الساعة 15:00UTC
رياح هادئة
درجة الحرارة 8°درجة مئوية
الرطوبة 87%
ضغط 1021 hPa
الرؤية 10 كم أو أكثر

METAR: YSWG 061500Z AUTO 00000KT 9999 // NCD 08/06 Q1021

زمن: 01:54 (15:54 UTC)


TAF: مفقودة

أرصاد الطقس والتوقعات من أكثر من 4000 مطار (تقارير الطقس للمطار METAR والتنبؤ بالطقس بالمطارTAF).

المحطات المتاحة هي النقط الصفراء والحمراء على الخريطة.

حرك المؤشر فوق النقطة لمعرفة اسم المحطة.

ثم انقر لمعرفة أرصاد وتوقعات الطقس.

لتغيير الخارطة: اضغط على الأزرار الخضراء مع رمز الصليب الأسود للتكبير. على الزر الأخضر مع شرطة للتصغير، أو على الأسهم الخضراء للخرائط المجاورة.


METAR-TAF: